Crew | Aerofun Virtual



 METAR AND TAF INFORMATION
METAR FOR GCLA
ADDS - METARS form results

(1659 UTC 29 January 2020)
Data provider http://aviationweather.gov/metar/data/
 
METAR text: GCLA 291630Z 04005KT 360V080 CAVOK 20/16 Q1022
Conditions at: GCLA (LA PALMA AIRPORT, ES) observed 1630 UTC 29 January 2020
Temperature: 20.0°C (68°F)
Dewpoint: 16.0°C (61°F) [RH = 78%]
Pressure (altimeter): 30.18 inches Hg (1022.0 mb)
Winds: from the NE (40 degrees) at 6 MPH (5 knots; 2.6 m/s)
Visibility: 6 or more miles (10+ km)
Ceiling: ceiling and visibility are OK
Clouds: unknown
Weather: no significant weather observed at this time

METAR text: GCLA 291600Z 04004KT 340V100 CAVOK 21/16 Q1022
Conditions at: GCLA (LA PALMA AIRPORT, ES) observed 1600 UTC 29 January 2020
Temperature: 21.0°C (70°F)
Dewpoint: 16.0°C (61°F) [RH = 73%]
Pressure (altimeter): 30.18 inches Hg (1022.0 mb)
Winds: from the NE (40 degrees) at 5 MPH (4 knots; 2.1 m/s)
Visibility: 6 or more miles (10+ km)
Ceiling: ceiling and visibility are OK
Clouds: unknown
Weather: no significant weather observed at this time

Forecast for: GCLA (LA PALMA AIRPORT, ES)
Text: TAF GCLA 291400Z 2915/3015 05006KT CAVOK TX24/3015Z TN16/3006Z
Forecast period: 1500 UTC 29 January 2020 to 1500 UTC 30 January 2020
Forecast type: FROM: standard forecast or significant change
Winds: from the NE (50 degrees) at 7 MPH (6 knots; 3.1 m/s)
Visibility: 6 or more miles 10+ km)
Ceiling: unknown
Clouds: missing
Weather: no significant weather forecast for this period

 AIRPORT MAP

 RUNWAY INFORMATION
Runway 01 Runway length 7218 ft Runway width 148 ft
Runway elevation 103 ft Runway displaced threshold 0 ft Runway heading 359
Runway 19 Runway length 7218 ft Runway width 148 ft
Runway elevation 65 ft Runway displaced threshold 0 ft Runway heading 179

 AIRPORT FREQUENCIES
Type APP Name CANARIAS A Frequency 126.1 MHZ
Type ATIS Name INFO Frequency 118.6 MHZ
Type GND Name GND Frequency 121.8 MHZ
Type TWR Name TWR Frequency 118.9 MHZ

 AIRPORT NEAR NAVIGATION AIDS
Type DME Name La Palma Frequency 112400 KHZ
Type NDB Name La Palma Frequency 389 KHZ